createdAt,value
2022-08-26T00:02:00.482Z,100846.16
2022-08-26T00:05:06.176Z,100846.97
2022-08-26T00:08:10.563Z,100839.72
2022-08-26T00:11:16.234Z,100828.34
2022-08-26T00:14:30.921Z,100829.06
2022-08-26T00:17:34.465Z,100824.75
2022-08-26T00:20:39.427Z,100810.53
2022-08-26T00:23:46.097Z,100803.38
2022-08-26T00:26:49.651Z,100800.47
2022-08-26T00:29:52.946Z,100797.16
2022-08-26T00:32:57.490Z,100810.91
2022-08-26T00:36:02.248Z,100802.28
2022-08-26T00:39:07.000Z,100806.13
2022-08-26T00:42:10.514Z,100799.19
2022-08-26T00:45:15.243Z,100792.75
2022-08-26T00:48:22.831Z,100783.50
2022-08-26T00:51:29.989Z,100782.22
2022-08-26T00:54:40.206Z,100773.16
2022-08-26T00:57:46.771Z,100775.50
2022-08-26T01:00:50.327Z,100755.81
2022-08-26T01:03:55.508Z,100759.00
2022-08-26T01:07:01.267Z,100752.88
2022-08-26T01:10:08.282Z,100746.94
2022-08-26T01:13:12.789Z,100740.31
2022-08-26T01:16:16.908Z,100735.00
2022-08-26T01:19:25.107Z,100736.28
2022-08-26T01:22:40.823Z,100729.59
2022-08-26T01:25:50.037Z,100740.06
2022-08-26T01:28:56.606Z,100743.44
2022-08-26T01:32:00.822Z,100752.41
2022-08-26T01:35:03.910Z,100737.31
2022-08-26T01:38:08.248Z,100731.38
2022-08-26T01:41:19.558Z,100739.78
2022-08-26T01:44:27.428Z,100745.75
2022-08-26T01:47:32.640Z,100746.03
2022-08-26T01:50:37.185Z,100752.97
2022-08-26T01:53:42.483Z,100746.31
2022-08-26T01:56:50.852Z,100745.66
2022-08-26T01:59:56.667Z,100740.72
2022-08-26T02:03:14.293Z,100751.34
2022-08-26T02:06:18.483Z,100739.78
2022-08-26T02:09:25.959Z,100740.16
2022-08-26T02:12:31.478Z,100735.19
2022-08-26T02:15:35.351Z,100723.66
2022-08-26T02:18:41.546Z,100723.72
2022-08-26T02:21:51.305Z,100713.50
2022-08-26T02:25:00.332Z,100712.84
2022-08-26T02:28:03.698Z,100714.84
2022-08-26T02:31:08.034Z,100713.56
2022-08-26T02:34:16.820Z,100703.84
2022-08-26T02:37:20.426Z,100696.72
2022-08-26T02:40:32.429Z,100692.44
2022-08-26T02:43:36.757Z,100691.13
2022-08-26T02:46:40.389Z,100693.31
2022-08-26T02:49:44.844Z,100682.22
2022-08-26T02:52:50.883Z,100678.28
2022-08-26T02:55:55.225Z,100664.19
2022-08-26T02:58:58.194Z,100654.44
2022-08-26T03:02:01.821Z,100650.44
2022-08-26T03:05:06.060Z,100649.94
2022-08-26T03:08:11.672Z,100649.38
2022-08-26T03:11:16.465Z,100644.53
2022-08-26T03:14:19.698Z,100649.94
2022-08-26T03:17:23.752Z,100655.63
2022-08-26T03:20:29.892Z,100651.47
2022-08-26T03:23:34.191Z,100640.44
2022-08-26T03:26:39.065Z,100640.78
2022-08-26T03:29:59.778Z,100642.81
2022-08-26T03:33:03.271Z,100653.75
2022-08-26T03:36:08.704Z,100629.91
2022-08-26T03:39:13.005Z,100636.50
2022-08-26T03:42:17.656Z,100627.75
2022-08-26T03:45:24.713Z,100631.59
2022-08-26T03:48:27.767Z,100622.63
2022-08-26T03:51:31.802Z,100619.50
2022-08-26T03:54:37.389Z,100612.41
2022-08-26T03:57:42.423Z,100612.75
2022-08-26T04:00:45.639Z,100612.75
2022-08-26T04:04:01.709Z,100612.03
2022-08-26T04:07:06.158Z,100613.53
2022-08-26T04:10:10.403Z,100615.31
2022-08-26T04:13:15.659Z,100614.28
2022-08-26T04:16:19.517Z,100622.53
2022-08-26T04:19:23.645Z,100632.31
2022-08-26T04:22:27.236Z,100635.97
2022-08-26T04:25:32.798Z,100635.13
2022-08-26T04:28:37.581Z,100626.38
2022-08-26T04:31:40.878Z,100622.03
2022-08-26T04:34:45.009Z,100615.28
2022-08-26T04:37:48.916Z,100617.50
2022-08-26T04:40:51.915Z,100621.81
2022-08-26T04:43:57.119Z,100630.03
2022-08-26T04:47:01.152Z,100635.00
2022-08-26T04:50:08.317Z,100626.38
2022-08-26T04:53:14.221Z,100623.44
2022-08-26T04:56:17.346Z,100616.44
2022-08-26T04:59:21.678Z,100624.38
2022-08-26T05:02:24.789Z,100626.31
2022-08-26T05:05:28.355Z,100625.78
2022-08-26T05:08:31.410Z,100635.28
2022-08-26T05:11:34.957Z,100634.16
2022-08-26T05:14:41.424Z,100620.91
2022-08-26T05:17:44.512Z,100636.75
2022-08-26T05:20:50.832Z,100644.59
2022-08-26T05:23:55.623Z,100649.00
2022-08-26T05:26:58.629Z,100656.41
2022-08-26T05:30:06.506Z,100662.63
2022-08-26T05:33:10.312Z,100664.59
2022-08-26T05:36:17.439Z,100671.53
2022-08-26T05:39:21.384Z,100669.34
2022-08-26T05:45:29.111Z,100665.84
2022-08-26T05:48:32.126Z,100666.31
2022-08-26T05:51:35.951Z,100667.59
2022-08-26T05:54:40.265Z,100671.75
2022-08-26T05:57:43.660Z,100674.31
2022-08-26T06:00:58.169Z,100686.94
2022-08-26T06:04:02.470Z,100675.59
2022-08-26T06:07:05.885Z,100686.50
2022-08-26T06:10:32.542Z,100689.84
2022-08-26T06:13:36.510Z,100691.56
2022-08-26T06:16:43.807Z,100702.84
2022-08-26T06:19:47.419Z,100700.78
2022-08-26T06:23:08.068Z,100702.63
2022-08-26T06:26:12.911Z,100709.34
2022-08-26T06:29:24.710Z,100720.28
2022-08-26T06:32:29.192Z,100704.13
2022-08-26T06:35:37.688Z,100694.78
2022-08-26T06:38:41.842Z,100706.22
2022-08-26T06:41:46.413Z,100712.25
2022-08-26T06:44:53.689Z,100705.16
2022-08-26T06:47:58.785Z,100715.06
2022-08-26T06:51:08.925Z,100714.75
2022-08-26T06:54:12.140Z,100726.91
2022-08-26T06:57:16.800Z,100725.03
2022-08-26T07:00:21.126Z,100733.75
2022-08-26T07:03:25.448Z,100738.66
2022-08-26T07:06:29.532Z,100738.09
2022-08-26T07:09:33.251Z,100740.81
2022-08-26T07:12:36.945Z,100732.94
2022-08-26T07:15:41.912Z,100731.81
2022-08-26T07:18:48.456Z,100730.66
2022-08-26T07:21:52.856Z,100745.31
2022-08-26T07:24:58.556Z,100766.16
2022-08-26T07:28:02.594Z,100766.38
2022-08-26T07:31:09.617Z,100757.78
2022-08-26T07:34:14.512Z,100771.94
2022-08-26T07:37:17.711Z,100751.22
2022-08-26T07:40:22.168Z,100766.84
2022-08-26T07:43:25.439Z,100797.66
2022-08-26T07:46:30.262Z,100790.69
2022-08-26T07:49:34.986Z,100798.88
2022-08-26T07:52:38.637Z,100792.91
2022-08-26T07:55:43.084Z,100791.03
2022-08-26T07:58:50.878Z,100802.13
2022-08-26T08:01:56.937Z,100783.44
2022-08-26T08:05:01.453Z,100806.63
2022-08-26T08:08:27.682Z,100802.94
2022-08-26T08:11:32.431Z,100831.72
2022-08-26T08:14:37.157Z,100811.78
2022-08-26T08:17:40.876Z,100826.34
2022-08-26T08:20:59.290Z,100822.03
2022-08-26T08:24:08.864Z,100800.00
2022-08-26T08:27:11.967Z,100814.00
2022-08-26T08:30:20.929Z,100817.28
2022-08-26T08:33:26.329Z,100812.06
2022-08-26T08:36:32.157Z,100825.78
2022-08-26T08:39:39.312Z,100794.38
2022-08-26T08:42:48.795Z,100830.63
2022-08-26T08:45:58.373Z,100815.16
2022-08-26T08:49:04.218Z,100826.31
2022-08-26T08:52:20.420Z,100827.34
2022-08-26T08:55:25.895Z,100845.44
2022-08-26T08:58:45.670Z,100843.59
2022-08-26T09:02:03.039Z,100844.88
2022-08-26T09:05:15.589Z,100835.13
2022-08-26T09:08:26.001Z,100848.88
2022-08-26T09:11:30.090Z,100846.78
2022-08-26T09:14:33.491Z,100857.41
2022-08-26T09:17:47.788Z,100856.75
2022-08-26T09:20:57.416Z,100849.09
2022-08-26T09:24:02.417Z,100861.44
2022-08-26T09:27:05.908Z,100854.38
2022-08-26T09:30:11.594Z,100852.97
2022-08-26T09:33:19.557Z,100862.66
2022-08-26T09:36:41.004Z,100852.75
2022-08-26T09:39:46.241Z,100858.78
2022-08-26T09:43:07.632Z,100867.25
2022-08-26T09:46:16.214Z,100862.53
2022-08-26T09:49:35.585Z,100857.38
2022-08-26T09:52:40.665Z,100854.25
2022-08-26T09:55:55.095Z,100856.63
2022-08-26T09:58:59.447Z,100852.72
2022-08-26T10:02:30.820Z,100840.50
2022-08-26T10:05:42.428Z,100827.66
2022-08-26T10:08:48.743Z,100823.22
2022-08-26T10:11:58.650Z,100829.22
2022-08-26T10:15:10.029Z,100814.09
2022-08-26T10:18:20.220Z,100811.66
2022-08-26T10:21:28.868Z,100807.50
2022-08-26T10:24:40.240Z,100803.28
2022-08-26T10:27:53.806Z,100794.56
2022-08-26T10:31:02.529Z,100800.78
2022-08-26T10:34:06.164Z,100789.91
2022-08-26T10:37:16.595Z,100774.13
2022-08-26T10:40:26.097Z,100783.81
2022-08-26T10:43:37.508Z,100780.53
2022-08-26T10:46:50.504Z,100774.22
2022-08-26T10:50:00.431Z,100776.09
2022-08-26T10:53:15.468Z,100763.41
2022-08-26T10:56:33.571Z,100758.56
2022-08-26T10:59:51.754Z,100753.44
2022-08-26T11:03:03.890Z,100741.28
2022-08-26T11:06:22.220Z,100737.13
2022-08-26T11:09:46.680Z,100737.16
2022-08-26T11:12:59.916Z,100732.47
2022-08-26T11:16:05.458Z,100734.66
2022-08-26T11:19:11.051Z,100725.91
2022-08-26T11:22:27.534Z,100710.63
2022-08-26T11:25:31.161Z,100709.94
2022-08-26T11:28:37.126Z,100712.81
2022-08-26T11:31:56.868Z,100695.22
2022-08-26T11:35:03.870Z,100692.75
2022-08-26T11:38:19.823Z,100657.63
2022-08-26T11:41:29.115Z,100664.38
2022-08-26T11:44:41.234Z,100677.53
2022-08-26T11:47:54.658Z,100681.72
2022-08-26T11:51:01.258Z,100682.94
2022-08-26T11:54:12.490Z,100672.06
2022-08-26T11:57:15.524Z,100676.59
2022-08-26T12:00:24.636Z,100676.09
2022-08-26T12:03:39.826Z,100664.75
2022-08-26T12:06:50.254Z,100638.91
2022-08-26T12:09:58.257Z,100596.50
2022-08-26T12:13:06.214Z,100588.09
2022-08-26T12:16:10.301Z,100586.16
2022-08-26T12:19:27.661Z,100630.50
2022-08-26T12:22:35.398Z,100609.34
2022-08-26T12:25:39.699Z,100565.09
2022-08-26T12:28:45.685Z,100534.41
2022-08-26T12:31:49.677Z,100511.22
2022-08-26T12:34:55.211Z,100554.28
2022-08-26T12:37:59.181Z,100535.47
2022-08-26T12:41:02.621Z,100514.34
2022-08-26T12:44:05.949Z,100519.69
2022-08-26T12:47:20.470Z,100541.63
2022-08-26T12:50:38.276Z,100500.19
2022-08-26T12:53:44.420Z,100479.91
2022-08-26T12:56:47.544Z,100487.34
2022-08-26T12:59:55.048Z,100486.63
2022-08-26T13:02:58.632Z,100476.03
2022-08-26T13:06:27.246Z,100466.81
2022-08-26T13:09:32.001Z,100468.66
2022-08-26T13:12:37.299Z,100405.53
2022-08-26T13:15:40.921Z,100344.53
2022-08-26T13:18:44.106Z,100294.31
2022-08-26T13:21:52.884Z,100273.22
2022-08-26T13:24:57.915Z,100266.16
2022-08-26T13:28:00.945Z,100257.28
2022-08-26T13:31:05.603Z,100251.59
2022-08-26T13:34:10.756Z,100216.22
2022-08-26T13:37:17.219Z,100195.38
2022-08-26T13:40:20.371Z,100183.00
2022-08-26T13:43:23.532Z,100192.47
2022-08-26T13:46:26.967Z,100191.22
2022-08-26T13:49:30.078Z,100170.25
2022-08-26T13:52:34.547Z,100162.69
2022-08-26T13:55:37.633Z,100165.56
2022-08-26T13:58:40.723Z,100152.31
2022-08-26T14:01:43.712Z,100153.53
2022-08-26T14:04:46.815Z,100158.78
2022-08-26T14:08:02.275Z,100176.31
2022-08-26T14:11:08.022Z,100172.03
2022-08-26T14:14:11.020Z,100170.66
2022-08-26T14:17:19.463Z,100161.31
2022-08-26T14:20:28.265Z,100162.72
2022-08-26T14:23:33.013Z,100214.59
2022-08-26T14:26:36.030Z,100258.88
2022-08-26T14:29:39.531Z,100297.09
2022-08-26T14:32:47.095Z,100271.22
2022-08-26T14:35:50.308Z,100233.50
2022-08-26T14:38:56.071Z,100228.72
2022-08-26T14:42:00.174Z,100225.41
2022-08-26T14:45:07.118Z,100253.03
2022-08-26T14:48:10.725Z,100274.13
2022-08-26T14:51:13.851Z,100284.97
2022-08-26T14:54:19.741Z,100337.75
2022-08-26T14:57:22.723Z,100359.75
2022-08-26T15:00:25.873Z,100347.59
2022-08-26T15:03:28.855Z,100309.47
2022-08-26T15:06:33.117Z,100259.44
2022-08-26T15:09:38.634Z,100228.00
2022-08-26T15:12:42.906Z,100200.63
2022-08-26T15:15:46.923Z,100182.03
2022-08-26T15:18:51.424Z,100161.03
2022-08-26T15:21:54.990Z,100152.22
2022-08-26T15:24:59.450Z,100157.88
2022-08-26T15:28:02.474Z,100149.84
2022-08-26T15:31:06.166Z,100133.56
2022-08-26T15:34:16.481Z,100143.41
2022-08-26T15:37:20.214Z,100148.19
2022-08-26T15:40:26.836Z,100153.50
2022-08-26T15:43:29.962Z,100138.94
2022-08-26T15:46:34.164Z,100141.97
2022-08-26T15:49:38.570Z,100142.78
2022-08-26T15:52:41.819Z,100138.31
2022-08-26T15:55:46.579Z,100128.47
2022-08-26T15:58:50.511Z,100115.53
2022-08-26T16:01:53.611Z,100095.22
2022-08-26T16:04:56.650Z,100096.06
2022-08-26T16:08:03.452Z,100086.31
2022-08-26T16:11:07.792Z,100080.41
2022-08-26T16:14:10.804Z,100086.53
2022-08-26T16:17:14.119Z,100091.25
2022-08-26T16:20:17.443Z,100091.47
2022-08-26T16:23:20.668Z,100104.34
2022-08-26T16:26:29.027Z,100106.34
2022-08-26T16:29:32.555Z,100111.50
2022-08-26T16:32:35.877Z,100085.47
2022-08-26T16:35:39.605Z,100063.22
2022-08-26T16:38:47.651Z,100055.06
2022-08-26T16:41:51.923Z,100061.06
2022-08-26T16:44:54.915Z,100060.97
2022-08-26T16:47:59.512Z,100063.47
2022-08-26T16:51:02.519Z,100068.00
2022-08-26T16:54:06.051Z,100075.38
2022-08-26T16:57:13.599Z,100079.09
2022-08-26T17:00:22.016Z,100077.91
2022-08-26T17:03:24.983Z,100086.91
2022-08-26T17:06:28.058Z,100087.34
2022-08-26T17:09:31.434Z,100092.47
2022-08-26T17:12:37.283Z,100089.81
2022-08-26T17:15:40.302Z,100101.78
2022-08-26T17:18:43.372Z,100115.59
2022-08-26T17:21:48.002Z,100112.84
2022-08-26T17:24:50.983Z,100113.00
2022-08-26T17:31:01.099Z,100119.31
2022-08-26T17:34:05.007Z,100103.69
2022-08-26T17:37:08.253Z,100111.78
2022-08-26T17:40:16.676Z,100107.72
2022-08-26T17:43:21.065Z,100104.44
2022-08-26T17:46:24.199Z,100108.97
2022-08-26T17:49:27.895Z,100113.59
2022-08-26T17:52:31.511Z,100100.78
2022-08-26T17:55:34.716Z,100100.78
2022-08-26T17:58:39.785Z,100095.94
2022-08-26T18:01:43.552Z,100091.34
2022-08-26T18:04:47.099Z,100082.00
2022-08-26T18:07:50.161Z,100071.81
2022-08-26T18:10:53.203Z,100067.28
2022-08-26T18:13:57.764Z,100063.66
2022-08-26T18:17:00.950Z,100071.16
2022-08-26T18:20:04.359Z,100059.94
2022-08-26T18:23:07.863Z,100067.53
2022-08-26T18:26:11.273Z,100068.13
2022-08-26T18:29:19.454Z,100060.75
2022-08-26T18:32:22.452Z,100067.63
2022-08-26T18:35:28.313Z,100065.19
2022-08-26T18:38:31.590Z,100055.16
2022-08-26T18:41:43.282Z,100048.00
2022-08-26T18:44:51.680Z,100043.50
2022-08-26T18:47:54.697Z,100029.22
2022-08-26T18:51:00.408Z,100020.19
2022-08-26T18:54:06.415Z,100012.06
2022-08-26T18:57:09.572Z,100003.09
2022-08-26T19:00:15.151Z,99996.38
2022-08-26T19:03:19.255Z,100001.22
2022-08-26T19:06:24.795Z,100000.16
2022-08-26T19:09:27.875Z,100003.06
2022-08-26T19:12:31.712Z,100006.25
2022-08-26T19:15:40.521Z,100005.94
2022-08-26T19:18:43.796Z,100011.25
2022-08-26T19:21:47.895Z,100015.16
2022-08-26T19:24:51.082Z,100027.31
2022-08-26T19:27:54.039Z,100043.38
2022-08-26T19:30:58.480Z,100060.00
2022-08-26T19:34:01.772Z,100063.28
2022-08-26T19:37:04.758Z,100053.06
2022-08-26T19:40:08.955Z,100061.00
2022-08-26T19:43:12.565Z,100048.84
2022-08-26T19:46:19.914Z,100047.94
2022-08-26T19:49:22.965Z,100049.50
2022-08-26T19:52:29.808Z,100055.91
2022-08-26T19:55:33.675Z,100061.00
2022-08-26T19:58:36.652Z,100053.53
2022-08-26T20:01:41.125Z,100048.84
2022-08-26T20:04:44.666Z,100059.06
2022-08-26T20:07:48.236Z,100059.63
2022-08-26T20:10:52.434Z,100061.00
2022-08-26T20:13:57.124Z,100074.09
2022-08-26T20:17:01.546Z,100064.56
2022-08-26T20:20:33.119Z,100074.28
2022-08-26T20:23:36.939Z,100074.19
2022-08-26T20:26:43.711Z,100076.34
2022-08-26T20:29:46.841Z,100078.81
2022-08-26T20:32:51.159Z,100091.53
2022-08-26T20:35:54.152Z,100086.97
2022-08-26T20:38:58.031Z,100078.56
2022-08-26T20:42:01.048Z,100086.66
2022-08-26T20:45:04.624Z,100084.47
2022-08-26T20:48:09.154Z,100085.69
2022-08-26T20:51:12.305Z,100078.81
2022-08-26T20:54:15.372Z,100077.81
2022-08-26T20:57:18.431Z,100077.81
2022-08-26T21:00:22.947Z,100081.47
2022-08-26T21:03:30.956Z,100084.84
2022-08-26T21:06:34.648Z,100083.84
2022-08-26T21:09:37.676Z,100078.47
2022-08-26T21:12:41.373Z,100088.13
2022-08-26T21:15:44.484Z,100099.63
2022-08-26T21:18:49.897Z,100092.59
2022-08-26T21:21:52.910Z,100092.59
2022-08-26T21:24:56.016Z,100088.88
2022-08-26T21:27:59.009Z,100070.97
2022-08-26T21:31:04.537Z,100063.69
2022-08-26T21:34:09.285Z,100073.25
2022-08-26T21:37:16.507Z,100073.38
2022-08-26T21:40:20.205Z,100065.59
2022-08-26T21:43:33.706Z,100055.38
2022-08-26T21:46:38.434Z,100068.25
2022-08-26T21:49:43.263Z,100060.78
2022-08-26T21:52:46.649Z,100063.78
2022-08-26T21:55:49.858Z,100064.16
2022-08-26T21:58:54.886Z,100065.00
2022-08-26T22:01:57.998Z,100073.28
2022-08-26T22:05:02.323Z,100071.59
2022-08-26T22:08:05.646Z,100084.91
2022-08-26T22:11:09.548Z,100084.00
2022-08-26T22:14:12.997Z,100086.06
2022-08-26T22:17:16.939Z,100080.75
2022-08-26T22:20:23.912Z,100080.00
2022-08-26T22:23:28.045Z,100076.22
2022-08-26T22:26:33.339Z,100062.72
2022-08-26T22:29:36.325Z,100059.56
2022-08-26T22:32:40.340Z,100049.25
2022-08-26T22:35:48.256Z,100043.88
2022-08-26T22:38:51.837Z,100023.63
2022-08-26T22:41:56.843Z,100008.16
2022-08-26T22:44:59.947Z,99988.19
2022-08-26T22:48:05.075Z,99972.44
2022-08-26T22:51:09.520Z,99960.03
2022-08-26T22:54:12.580Z,99946.63
2022-08-26T22:57:15.571Z,99931.34
2022-08-26T23:00:18.555Z,99922.59
2022-08-26T23:03:21.832Z,99920.53
2022-08-26T23:06:27.059Z,99932.06
2022-08-26T23:09:30.028Z,99940.81
2022-08-26T23:12:33.022Z,99952.31
2022-08-26T23:15:36.474Z,99958.66
2022-08-26T23:18:39.960Z,99955.56
2022-08-26T23:21:44.451Z,99948.09
2022-08-26T23:24:47.445Z,99955.97
2022-08-26T23:27:51.343Z,99955.22
2022-08-26T23:30:54.572Z,99949.47
2022-08-26T23:34:14.908Z,99947.84
2022-08-26T23:37:19.833Z,99957.19
2022-08-26T23:40:29.536Z,99950.53
2022-08-26T23:43:32.591Z,99956.78
2022-08-26T23:46:36.688Z,99962.06
2022-08-26T23:49:40.063Z,99965.59
2022-08-26T23:53:02.445Z,99967.50
2022-08-26T23:56:05.560Z,99972.63
2022-08-26T23:59:09.139Z,99960.84
